Canton, Kentucky
Current Conditions -  °F | °C
As of 12:58 AM on Friday 31 Oct 2014 (Local Time) from KHOP Reporting Station
Drizzle Drizzle  
Wind Chill: 51°   Ceiling: 6500
Heat Index: 51°   Visibility: 4mi
Dew Point: 48°   Wind: 3mph
Humidity: 90%   Direction: 190°S
Pressure: 30.01"   Gusts: NA
Location:  36.8031°N, 87.8159°W
Report Text: KHOP 310558Z 19003KT 4SM -DZ BR OVC065 10/09 A3001 RMK AO2A SLP163 P0000 60000 T01030087 10123 20101 401590019 57010
Loading
Personal Weather Stations






























Interactive Weather Map
Tropical Storm Tracking
New forecast layout! Learn more

10-Day Weather Forecast

Advertisements
Track Severe Weather on mobile